createdAt,value
2022-11-27T00:00:51.642Z,129.32
2022-11-27T00:02:58.783Z,145.75
2022-11-27T00:04:46.349Z,154.07
2022-11-27T00:06:34.399Z,158.97
2022-11-27T00:08:22.643Z,144.10
2022-11-27T00:10:10.831Z,177.57
2022-11-27T00:13:45.799Z,136.40
2022-11-27T00:15:33.947Z,144.27
2022-11-27T00:17:21.021Z,121.85
2022-11-27T00:19:08.475Z,130.45
2022-11-27T00:20:56.131Z,131.57
2022-11-27T00:22:43.177Z,136.43
2022-11-27T00:24:30.239Z,155.90
2022-11-27T00:26:17.914Z,158.65
2022-11-27T00:28:05.033Z,131.45
2022-11-27T00:29:52.247Z,125.82
2022-11-27T00:31:39.719Z,129.00
2022-11-27T00:33:27.092Z,135.98
2022-11-27T00:35:14.284Z,128.98
2022-11-27T00:37:01.874Z,144.50
2022-11-27T00:38:48.885Z,132.00
2022-11-27T00:40:36.218Z,131.73
2022-11-27T00:42:23.647Z,124.38
2022-11-27T00:44:12.246Z,117.45
2022-11-27T00:45:59.283Z,122.15
2022-11-27T00:47:46.733Z,113.28
2022-11-27T00:49:33.800Z,117.30
2022-11-27T00:51:23.059Z,117.15
2022-11-27T00:53:10.342Z,123.95
2022-11-27T00:54:57.432Z,128.63
2022-11-27T00:56:44.822Z,127.43
2022-11-27T00:58:32.470Z,139.30
2022-11-27T01:00:19.950Z,92.03
2022-11-27T01:02:07.166Z,135.23
2022-11-27T01:03:59.455Z,130.02
2022-11-27T01:05:46.495Z,128.15
2022-11-27T01:07:33.967Z,126.40
2022-11-27T01:09:21.479Z,122.97
2022-11-27T01:11:13.604Z,122.00
2022-11-27T01:13:00.645Z,130.63
2022-11-27T01:14:47.933Z,127.90
2022-11-27T01:16:36.983Z,133.93
2022-11-27T01:18:25.744Z,144.48
2022-11-27T01:20:13.316Z,139.00
2022-11-27T01:22:00.351Z,142.35
2022-11-27T01:23:48.717Z,136.02
2022-11-27T01:25:36.316Z,149.93
2022-11-27T01:27:23.341Z,148.98
2022-11-27T01:29:10.863Z,139.43
2022-11-27T01:30:58.530Z,134.32
2022-11-27T01:32:45.672Z,125.45
2022-11-27T01:34:32.710Z,121.67
2022-11-27T01:36:20.085Z,133.95
2022-11-27T01:38:07.147Z,135.27
2022-11-27T01:39:54.144Z,134.60
2022-11-27T01:41:42.005Z,124.75
2022-11-27T01:43:42.603Z,142.07
2022-11-27T01:45:29.824Z,133.23
2022-11-27T01:47:34.593Z,130.50
2022-11-27T01:49:35.756Z,132.70
2022-11-27T01:51:24.667Z,142.75
2022-11-27T01:53:16.444Z,140.60
2022-11-27T01:55:18.987Z,140.77
2022-11-27T01:57:18.073Z,139.55
2022-11-27T01:59:05.704Z,136.75
2022-11-27T02:00:52.963Z,142.68
2022-11-27T02:02:41.268Z,148.65
2022-11-27T02:04:29.156Z,134.38
2022-11-27T02:06:16.350Z,135.27
2022-11-27T02:08:10.996Z,135.15
2022-11-27T02:09:58.384Z,136.93
2022-11-27T02:11:53.275Z,135.48
2022-11-27T02:13:53.108Z,153.00
2022-11-27T02:16:00.564Z,141.18
2022-11-27T02:17:55.229Z,154.88
2022-11-27T02:19:56.799Z,146.88
2022-11-27T02:21:49.745Z,154.13
2022-11-27T02:24:06.091Z,145.50
2022-11-27T02:26:20.708Z,134.10
2022-11-27T02:28:29.788Z,147.05
2022-11-27T02:30:17.964Z,142.75
2022-11-27T02:32:21.127Z,146.13
2022-11-27T02:34:46.013Z,150.15
2022-11-27T02:36:35.327Z,154.50
2022-11-27T02:38:35.424Z,149.60
2022-11-27T02:40:38.069Z,146.65
2022-11-27T02:42:29.075Z,155.60
2022-11-27T02:44:18.267Z,157.20
2022-11-27T02:46:08.348Z,152.60
2022-11-27T02:47:58.061Z,149.52
2022-11-27T02:49:47.464Z,147.43
2022-11-27T02:51:42.434Z,146.80
2022-11-27T02:53:54.319Z,140.88
2022-11-27T02:55:43.390Z,144.98
2022-11-27T02:57:32.631Z,145.95
2022-11-27T02:59:21.964Z,144.00
2022-11-27T03:01:11.077Z,141.75
2022-11-27T03:03:04.745Z,138.60
2022-11-27T03:04:55.391Z,129.90
2022-11-27T03:06:51.013Z,133.90
2022-11-27T03:09:02.228Z,139.88
2022-11-27T03:11:00.979Z,136.35
2022-11-27T03:12:48.939Z,147.25
2022-11-27T03:14:39.209Z,150.52
2022-11-27T03:16:45.167Z,138.27
2022-11-27T03:18:57.012Z,131.75
2022-11-27T03:20:52.592Z,134.40
2022-11-27T03:22:39.798Z,133.65
2022-11-27T03:24:29.144Z,120.80
2022-11-27T03:26:16.493Z,121.30
2022-11-27T03:28:08.132Z,128.70
2022-11-27T03:29:58.425Z,128.75
2022-11-27T03:31:45.817Z,134.15
2022-11-27T03:33:33.196Z,151.35
2022-11-27T03:35:24.474Z,161.02
2022-11-27T03:37:11.800Z,151.00
2022-11-27T03:38:58.843Z,137.20
2022-11-27T03:41:08.827Z,131.98
2022-11-27T03:43:27.377Z,124.43
2022-11-27T03:45:30.543Z,125.95
2022-11-27T03:47:32.708Z,119.35
2022-11-27T03:49:37.222Z,129.23
2022-11-27T03:51:46.045Z,123.90
2022-11-27T03:53:38.687Z,122.82
2022-11-27T03:55:31.792Z,128.32
2022-11-27T03:57:28.658Z,126.40
2022-11-27T03:59:34.459Z,128.27
2022-11-27T04:01:25.138Z,131.07
2022-11-27T04:03:13.568Z,127.75
2022-11-27T04:05:00.757Z,129.98
2022-11-27T04:06:48.169Z,135.68
2022-11-27T04:10:22.930Z,102.75
2022-11-27T04:12:10.427Z,130.63
2022-11-27T04:13:57.443Z,129.82
2022-11-27T04:15:44.670Z,132.25
2022-11-27T04:17:32.284Z,125.85
2022-11-27T04:19:19.358Z,147.63
2022-11-27T04:21:06.428Z,132.25
2022-11-27T04:22:53.754Z,128.77
2022-11-27T04:24:40.937Z,125.27
2022-11-27T04:26:28.154Z,135.10
2022-11-27T04:28:17.618Z,138.05
2022-11-27T04:30:05.327Z,134.27
2022-11-27T04:31:52.400Z,129.68
2022-11-27T04:33:39.711Z,135.10
2022-11-27T04:35:26.700Z,142.45
2022-11-27T04:37:13.682Z,125.45
2022-11-27T04:39:00.945Z,130.30
2022-11-27T04:40:48.332Z,123.30
2022-11-27T04:42:35.336Z,127.03
2022-11-27T04:44:22.887Z,124.65
2022-11-27T04:46:09.885Z,128.38
2022-11-27T04:47:56.989Z,137.77
2022-11-27T04:49:44.402Z,127.22
2022-11-27T04:51:31.776Z,127.05
2022-11-27T04:53:18.767Z,123.45
2022-11-27T04:55:06.645Z,129.68
2022-11-27T04:56:53.622Z,118.85
2022-11-27T04:58:41.392Z,119.90
2022-11-27T05:00:28.867Z,115.95
2022-11-27T05:02:15.986Z,124.15
2022-11-27T05:04:03.097Z,112.33
2022-11-27T05:05:57.501Z,125.57
2022-11-27T05:07:44.678Z,121.43
2022-11-27T05:09:31.916Z,117.13
2022-11-27T05:11:19.228Z,111.70
2022-11-27T05:13:06.233Z,131.63
2022-11-27T05:14:53.246Z,117.55
2022-11-27T05:16:41.606Z,124.88
2022-11-27T05:18:28.860Z,113.85
2022-11-27T05:20:15.982Z,114.13
2022-11-27T05:22:04.695Z,119.63
2022-11-27T05:23:52.550Z,116.38
2022-11-27T05:25:39.915Z,114.93
2022-11-27T05:27:27.218Z,129.60
2022-11-27T05:29:14.900Z,110.13
2022-11-27T05:31:02.062Z,125.68
2022-11-27T05:32:49.433Z,121.80
2022-11-27T05:34:36.408Z,125.93
2022-11-27T05:36:23.997Z,134.80
2022-11-27T05:38:12.493Z,134.45
2022-11-27T05:39:59.494Z,122.90
2022-11-27T05:41:46.523Z,133.33
2022-11-27T05:43:38.126Z,128.82
2022-11-27T05:45:25.254Z,140.10
2022-11-27T05:47:12.251Z,149.20
2022-11-27T05:48:59.605Z,159.32
2022-11-27T05:50:46.745Z,142.63
2022-11-27T05:52:34.596Z,134.45
2022-11-27T05:54:21.867Z,138.57
2022-11-27T05:56:14.638Z,123.83
2022-11-27T05:58:01.832Z,120.32
2022-11-27T05:59:49.224Z,134.77
2022-11-27T06:01:36.210Z,136.80
2022-11-27T06:03:23.337Z,137.32
2022-11-27T06:05:13.895Z,127.97
2022-11-27T06:07:00.991Z,120.65
2022-11-27T06:08:48.738Z,119.30
2022-11-27T06:10:37.836Z,121.13
2022-11-27T06:12:24.937Z,114.03
2022-11-27T06:14:11.998Z,118.32
2022-11-27T06:15:59.303Z,123.53
2022-11-27T06:17:48.479Z,121.30
2022-11-27T06:19:35.494Z,131.73
2022-11-27T06:21:24.268Z,123.72
2022-11-27T06:23:11.300Z,120.15
2022-11-27T06:24:58.329Z,115.40
2022-11-27T06:26:45.966Z,112.18
2022-11-27T06:28:33.223Z,144.77
2022-11-27T06:30:20.379Z,135.07
2022-11-27T06:34:19.147Z,149.77
2022-11-27T06:36:07.197Z,133.43
2022-11-27T06:37:55.265Z,126.18
2022-11-27T06:39:42.409Z,114.70
2022-11-27T06:41:29.897Z,128.73
2022-11-27T06:43:17.447Z,131.90
2022-11-27T06:45:05.536Z,124.13
2022-11-27T06:46:53.720Z,131.65
2022-11-27T06:48:43.700Z,130.57
2022-11-27T06:50:33.720Z,129.38
2022-11-27T06:52:20.905Z,132.02
2022-11-27T06:54:10.753Z,119.75
2022-11-27T06:55:58.188Z,116.03
2022-11-27T06:57:45.636Z,117.00
2022-11-27T06:59:36.425Z,115.18
2022-11-27T07:01:25.219Z,115.30
2022-11-27T07:03:12.627Z,110.15
2022-11-27T07:05:00.279Z,125.65
2022-11-27T07:06:47.740Z,120.03
2022-11-27T07:08:36.055Z,115.57
2022-11-27T07:10:26.429Z,118.15
2022-11-27T07:12:13.698Z,116.22
2022-11-27T07:14:03.834Z,109.78
2022-11-27T07:15:51.454Z,127.40
2022-11-27T07:17:39.243Z,120.22
2022-11-27T07:19:26.570Z,110.68
2022-11-27T07:21:14.720Z,138.10
2022-11-27T07:23:04.788Z,125.78
2022-11-27T07:24:52.020Z,127.90
2022-11-27T07:26:39.578Z,107.07
2022-11-27T07:28:26.735Z,117.63
2022-11-27T07:30:14.824Z,121.13
2022-11-27T07:32:02.299Z,122.25
2022-11-27T07:33:51.819Z,112.25
2022-11-27T07:35:39.027Z,117.13
2022-11-27T07:40:01.273Z,208.10
2022-11-27T07:41:46.044Z,391.35
2022-11-27T07:43:34.716Z,273.33
2022-11-27T07:45:21.832Z,127.43
2022-11-27T07:47:09.004Z,102.10
2022-11-27T07:48:56.333Z,119.32
2022-11-27T07:50:43.433Z,121.40
2022-11-27T07:52:30.565Z,124.00
2022-11-27T07:54:17.834Z,124.60
2022-11-27T07:56:06.707Z,112.40
2022-11-27T07:57:53.877Z,118.65
2022-11-27T07:59:46.983Z,108.80
2022-11-27T08:01:34.421Z,101.70
2022-11-27T08:03:21.676Z,108.35
2022-11-27T08:05:12.679Z,103.53
2022-11-27T08:07:00.211Z,95.18
2022-11-27T08:08:48.170Z,98.82
2022-11-27T08:10:37.866Z,97.30
2022-11-27T08:12:26.163Z,97.65
2022-11-27T08:14:14.213Z,96.00
2022-11-27T08:16:01.517Z,86.50
2022-11-27T08:17:48.597Z,89.88
2022-11-27T08:19:35.713Z,96.60
2022-11-27T08:21:23.926Z,100.60
2022-11-27T08:23:11.345Z,104.15
2022-11-27T08:24:58.640Z,86.75
2022-11-27T08:26:46.010Z,89.50
2022-11-27T08:28:33.763Z,88.05
2022-11-27T08:30:23.851Z,87.47
2022-11-27T08:32:11.863Z,92.00
2022-11-27T08:33:59.179Z,89.20
2022-11-27T08:35:49.740Z,93.88
2022-11-27T08:37:38.111Z,87.43
2022-11-27T08:41:14.043Z,84.35
2022-11-27T08:44:48.732Z,100.47
2022-11-27T08:46:36.243Z,106.32
2022-11-27T08:48:25.480Z,104.43
2022-11-27T08:50:12.830Z,87.72
2022-11-27T08:51:59.975Z,92.53
2022-11-27T08:53:47.895Z,86.00
2022-11-27T08:55:34.918Z,89.45
2022-11-27T08:57:21.933Z,93.33
2022-11-27T08:59:09.458Z,89.65
2022-11-27T09:00:56.605Z,88.35
2022-11-27T09:02:43.660Z,82.88
2022-11-27T09:04:31.394Z,84.60
2022-11-27T09:06:29.766Z,89.95
2022-11-27T09:08:20.790Z,88.85
2022-11-27T09:10:09.697Z,94.50
2022-11-27T09:11:56.826Z,87.18
2022-11-27T09:13:44.728Z,87.53
2022-11-27T09:15:32.585Z,90.00
2022-11-27T09:17:19.795Z,86.40
2022-11-27T09:19:07.005Z,89.78
2022-11-27T09:20:59.862Z,91.43
2022-11-27T09:22:47.355Z,87.82
2022-11-27T09:24:36.018Z,85.80
2022-11-27T09:26:25.580Z,74.03
2022-11-27T09:28:12.867Z,86.07
2022-11-27T09:30:00.781Z,95.57
2022-11-27T09:31:48.389Z,112.63
2022-11-27T09:33:37.709Z,105.78
2022-11-27T09:35:24.879Z,92.95
2022-11-27T09:37:12.834Z,88.60
2022-11-27T09:39:00.362Z,116.75
2022-11-27T09:40:52.506Z,95.25
2022-11-27T09:42:49.879Z,88.40
2022-11-27T09:44:47.059Z,95.05
2022-11-27T09:46:41.275Z,90.45
2022-11-27T09:48:35.962Z,99.25
2022-11-27T09:50:30.132Z,98.95
2022-11-27T09:52:33.038Z,101.22
2022-11-27T09:54:50.820Z,104.15
2022-11-27T09:56:41.362Z,109.40
2022-11-27T09:58:36.853Z,110.50
2022-11-27T10:00:27.510Z,131.60
2022-11-27T10:02:25.285Z,97.18
2022-11-27T10:04:18.607Z,101.80
2022-11-27T10:06:39.516Z,77.57
2022-11-27T10:08:47.866Z,89.20
2022-11-27T10:11:05.457Z,96.63
2022-11-27T10:12:58.593Z,84.93
2022-11-27T10:15:07.178Z,67.38
2022-11-27T10:17:04.379Z,65.00
2022-11-27T10:19:12.155Z,74.40
2022-11-27T10:21:25.847Z,92.93
2022-11-27T10:23:37.165Z,72.13
2022-11-27T10:25:45.424Z,86.72
2022-11-27T10:28:00.574Z,63.38
2022-11-27T10:29:54.796Z,63.97
2022-11-27T10:31:52.479Z,72.40
2022-11-27T10:33:45.110Z,67.00
2022-11-27T10:35:33.084Z,84.93
2022-11-27T10:37:39.733Z,76.63
2022-11-27T10:39:41.347Z,70.75
2022-11-27T10:41:52.410Z,130.50
2022-11-27T10:43:39.914Z,92.18
2022-11-27T10:45:53.528Z,93.38
2022-11-27T10:47:42.927Z,107.80
2022-11-27T10:49:31.631Z,103.55
2022-11-27T10:51:29.378Z,113.13
2022-11-27T10:53:22.459Z,191.43
2022-11-27T10:55:19.652Z,137.70
2022-11-27T10:57:18.710Z,134.70
2022-11-27T10:59:34.448Z,109.43
2022-11-27T11:01:24.265Z,100.30
2022-11-27T11:03:17.900Z,108.85
2022-11-27T11:05:56.814Z,94.68
2022-11-27T11:07:30.542Z,103.88
2022-11-27T11:09:21.629Z,138.25
2022-11-27T11:11:09.585Z,98.88
2022-11-27T11:13:12.028Z,98.35
2022-11-27T11:15:00.723Z,84.53
2022-11-27T11:16:48.458Z,80.30
2022-11-27T11:18:44.564Z,76.60
2022-11-27T11:20:31.722Z,77.68
2022-11-27T11:22:19.296Z,98.65
2022-11-27T11:24:23.349Z,83.00
2022-11-27T11:26:16.367Z,75.80
2022-11-27T11:28:04.150Z,86.47
2022-11-27T11:30:02.206Z,71.00
2022-11-27T11:31:49.834Z,69.45
2022-11-27T11:33:49.389Z,70.05
2022-11-27T11:35:37.205Z,71.53
2022-11-27T11:37:32.595Z,72.50
2022-11-27T11:39:25.897Z,63.88
2022-11-27T11:41:14.247Z,61.22
2022-11-27T11:45:01.713Z,69.43
2022-11-27T11:46:55.984Z,72.53
2022-11-27T11:48:57.356Z,69.65
2022-11-27T11:50:54.276Z,78.10
2022-11-27T11:52:58.695Z,67.22
2022-11-27T11:54:51.757Z,58.38
2022-11-27T11:56:46.426Z,61.03
2022-11-27T11:58:53.069Z,74.50
2022-11-27T12:01:04.746Z,72.15
2022-11-27T12:02:56.120Z,79.32
2022-11-27T12:05:08.739Z,70.45
2022-11-27T12:07:03.392Z,106.80
2022-11-27T12:08:56.812Z,87.22
2022-11-27T12:10:56.775Z,93.70
2022-11-27T12:12:55.871Z,103.80
2022-11-27T12:14:58.138Z,86.28
2022-11-27T12:17:07.933Z,109.72
2022-11-27T12:18:55.693Z,143.35
2022-11-27T12:21:05.264Z,107.95
2022-11-27T12:23:00.541Z,92.65
2022-11-27T12:25:30.323Z,76.93
2022-11-27T12:27:24.024Z,97.15
2022-11-27T12:29:27.107Z,80.70
2022-11-27T12:31:52.734Z,76.70
2022-11-27T12:34:01.563Z,79.90
2022-11-27T12:36:18.711Z,75.90
2022-11-27T12:38:17.799Z,61.73
2022-11-27T12:40:24.671Z,72.43
2022-11-27T12:42:23.939Z,69.43
2022-11-27T12:44:45.181Z,55.30
2022-11-27T12:47:01.031Z,77.25
2022-11-27T12:49:17.767Z,71.90
2022-11-27T12:51:48.167Z,74.78
2022-11-27T12:53:45.431Z,69.88
2022-11-27T12:55:35.668Z,72.23
2022-11-27T12:57:41.607Z,62.30
2022-11-27T12:59:49.370Z,60.10
2022-11-27T13:01:42.593Z,52.28
2022-11-27T13:03:35.391Z,54.10
2022-11-27T13:05:28.462Z,50.28
2022-11-27T13:07:21.067Z,56.20
2022-11-27T13:09:23.303Z,63.33
2022-11-27T13:11:14.247Z,72.15
2022-11-27T13:13:05.218Z,68.50
2022-11-27T13:15:00.439Z,89.20
2022-11-27T13:17:02.596Z,57.60
2022-11-27T13:19:04.501Z,82.20
2022-11-27T13:20:53.031Z,103.50
2022-11-27T13:22:43.241Z,108.20
2022-11-27T13:24:46.678Z,112.28
2022-11-27T13:26:53.112Z,81.70
2022-11-27T13:28:53.903Z,94.00
2022-11-27T13:30:42.924Z,65.60
2022-11-27T13:32:33.124Z,72.85
2022-11-27T13:34:26.855Z,66.05
2022-11-27T13:36:42.153Z,88.60
2022-11-27T13:38:30.833Z,98.53
2022-11-27T13:40:31.688Z,81.65
2022-11-27T13:42:22.493Z,63.60
2022-11-27T13:44:29.005Z,75.00
2022-11-27T13:46:27.483Z,78.85
2022-11-27T13:48:37.408Z,82.10
2022-11-27T13:50:30.903Z,87.85
2022-11-27T13:52:22.565Z,82.95
2022-11-27T13:54:12.583Z,59.63
2022-11-27T13:56:00.515Z,53.55
2022-11-27T13:57:56.084Z,52.97
2022-11-27T14:00:11.575Z,44.90
2022-11-27T14:02:05.319Z,46.63
2022-11-27T14:04:06.065Z,55.95
2022-11-27T14:05:53.659Z,68.85
2022-11-27T14:07:45.507Z,72.47
2022-11-27T14:09:41.535Z,61.13
2022-11-27T14:11:36.493Z,64.22
2022-11-27T14:13:38.779Z,74.05
2022-11-27T14:15:28.284Z,75.90
2022-11-27T14:17:36.415Z,72.80
2022-11-27T14:20:19.195Z,73.72
2022-11-27T14:22:48.464Z,76.88
2022-11-27T14:24:46.156Z,75.50
2022-11-27T14:26:34.150Z,101.38
2022-11-27T14:28:26.644Z,105.18
2022-11-27T14:30:23.577Z,93.90
2022-11-27T14:32:14.624Z,71.53
2022-11-27T14:34:23.221Z,89.72
2022-11-27T14:36:32.603Z,105.15
2022-11-27T14:38:21.034Z,119.03
2022-11-27T14:40:27.330Z,116.70
2022-11-27T14:42:28.880Z,121.03
2022-11-27T14:44:19.225Z,136.57
2022-11-27T14:46:17.115Z,124.43
2022-11-27T14:48:04.666Z,118.05
2022-11-27T14:49:56.776Z,144.27
2022-11-27T14:51:44.475Z,138.48
2022-11-27T14:53:32.046Z,188.93
2022-11-27T14:55:20.008Z,141.10
2022-11-27T14:57:14.230Z,140.38
2022-11-27T14:59:04.340Z,245.85
2022-11-27T15:00:57.561Z,261.00
2022-11-27T15:02:47.267Z,231.80
2022-11-27T15:04:37.078Z,171.68
2022-11-27T15:06:26.187Z,128.95
2022-11-27T15:08:15.868Z,91.15
2022-11-27T15:10:08.069Z,117.90
2022-11-27T15:12:03.813Z,144.98
2022-11-27T15:13:56.244Z,165.32
2022-11-27T15:15:45.141Z,156.82
2022-11-27T15:17:36.246Z,129.52
2022-11-27T15:19:34.035Z,96.95
2022-11-27T15:21:25.769Z,95.22
2022-11-27T15:23:26.082Z,86.22
2022-11-27T15:25:39.156Z,92.55
2022-11-27T15:27:26.534Z,102.07
2022-11-27T15:29:36.206Z,101.40
2022-11-27T15:31:26.858Z,91.40
2022-11-27T15:33:27.246Z,89.53
2022-11-27T15:35:16.017Z,101.40
2022-11-27T15:37:06.490Z,100.70
2022-11-27T15:39:18.244Z,102.95
2022-11-27T15:41:05.766Z,95.47
2022-11-27T15:42:53.469Z,101.28
2022-11-27T15:44:41.162Z,98.85
2022-11-27T15:46:34.517Z,110.07
2022-11-27T15:48:22.852Z,123.05
2022-11-27T15:52:04.339Z,101.03
2022-11-27T15:53:52.084Z,106.60
2022-11-27T15:55:39.629Z,95.82
2022-11-27T15:57:26.801Z,100.63
2022-11-27T15:59:15.759Z,130.35
2022-11-27T16:01:03.104Z,128.02
2022-11-27T16:02:52.684Z,155.80
2022-11-27T16:04:40.810Z,175.35
2022-11-27T16:06:28.677Z,191.23
2022-11-27T16:08:16.217Z,226.73
2022-11-27T16:11:51.422Z,241.63
2022-11-27T16:13:38.675Z,276.55
2022-11-27T16:15:32.733Z,273.13
2022-11-27T16:17:21.194Z,234.35
2022-11-27T16:20:56.270Z,249.30
2022-11-27T16:22:43.662Z,246.45
2022-11-27T16:24:33.514Z,253.55
2022-11-27T16:26:21.374Z,258.17
2022-11-27T16:28:09.092Z,256.75
2022-11-27T16:29:59.015Z,273.83
2022-11-27T16:31:47.834Z,243.00
2022-11-27T16:33:36.342Z,228.85
2022-11-27T16:35:25.481Z,216.15
2022-11-27T16:37:18.121Z,208.38
2022-11-27T16:39:05.624Z,215.65
2022-11-27T16:41:00.621Z,234.38
2022-11-27T16:42:48.391Z,210.88
2022-11-27T16:44:35.910Z,201.32
2022-11-27T16:46:29.209Z,206.85
2022-11-27T16:48:16.853Z,231.98
2022-11-27T16:50:13.943Z,241.13
2022-11-27T16:52:03.214Z,209.00
2022-11-27T16:53:54.128Z,203.57
2022-11-27T16:55:42.326Z,183.55
2022-11-27T16:57:31.681Z,158.95
2022-11-27T16:59:19.139Z,143.05
2022-11-27T17:01:08.203Z,129.50
2022-11-27T17:02:55.346Z,124.45
2022-11-27T17:04:43.422Z,123.63
2022-11-27T17:06:34.937Z,122.85
2022-11-27T17:08:23.799Z,108.35
2022-11-27T17:10:11.902Z,118.68
2022-11-27T17:11:59.784Z,118.45
2022-11-27T17:13:48.776Z,123.38
2022-11-27T17:15:40.560Z,129.38
2022-11-27T17:17:29.821Z,135.85
2022-11-27T17:19:18.846Z,147.38
2022-11-27T17:21:11.355Z,160.70
2022-11-27T17:22:59.523Z,173.02
2022-11-27T17:24:47.068Z,176.35
2022-11-27T17:26:42.268Z,165.75
2022-11-27T17:28:31.710Z,179.50
2022-11-27T17:30:20.185Z,182.77
2022-11-27T17:32:09.969Z,165.20
2022-11-27T17:33:59.144Z,161.40
2022-11-27T17:35:46.485Z,153.52
2022-11-27T17:37:34.854Z,165.23
2022-11-27T17:39:22.251Z,164.98
2022-11-27T17:41:15.421Z,159.10
2022-11-27T17:43:03.092Z,147.75
2022-11-27T17:44:51.749Z,133.10
2022-11-27T17:46:40.063Z,138.30
2022-11-27T17:48:29.349Z,135.15
2022-11-27T17:50:18.498Z,141.35
2022-11-27T17:52:06.855Z,136.35
2022-11-27T17:53:58.486Z,132.23
2022-11-27T17:55:46.724Z,133.90
2022-11-27T17:57:34.694Z,138.48
2022-11-27T17:59:22.361Z,135.07
2022-11-27T18:01:17.326Z,129.32
2022-11-27T18:03:07.504Z,133.88
2022-11-27T18:04:56.336Z,137.30
2022-11-27T18:06:46.429Z,142.32
2022-11-27T18:08:34.413Z,154.25
2022-11-27T18:10:22.712Z,159.00
2022-11-27T18:12:11.061Z,161.38
2022-11-27T18:13:58.837Z,158.65
2022-11-27T18:15:47.296Z,159.45
2022-11-27T18:17:35.332Z,149.07
2022-11-27T18:19:22.663Z,157.55
2022-11-27T18:21:18.033Z,190.27
2022-11-27T18:23:06.340Z,209.38
2022-11-27T18:24:53.550Z,218.82
2022-11-27T18:30:37.132Z,242.45
2022-11-27T18:32:25.087Z,261.35
2022-11-27T18:34:12.487Z,272.80
2022-11-27T18:36:02.066Z,343.45
2022-11-27T18:37:49.492Z,506.65
2022-11-27T18:39:37.435Z,471.15
2022-11-27T18:41:28.299Z,315.15
2022-11-27T18:43:16.409Z,241.63
2022-11-27T18:46:53.422Z,172.60
2022-11-27T18:48:43.385Z,179.52
2022-11-27T18:50:31.745Z,164.13
2022-11-27T18:52:19.292Z,173.30
2022-11-27T18:54:07.463Z,170.10
2022-11-27T18:57:49.099Z,177.02
2022-11-27T18:59:37.122Z,193.00
2022-11-27T19:01:28.656Z,189.40
2022-11-27T19:03:16.025Z,192.93
2022-11-27T19:06:52.835Z,181.23
2022-11-27T19:08:42.579Z,185.32
2022-11-27T19:10:33.203Z,181.70
2022-11-27T19:12:21.796Z,181.35
2022-11-27T19:14:10.421Z,173.73
2022-11-27T19:16:06.704Z,178.75
2022-11-27T19:17:54.129Z,188.13
2022-11-27T19:19:56.695Z,190.95
2022-11-27T19:21:45.979Z,184.20
2022-11-27T19:23:39.244Z,191.85
2022-11-27T19:25:27.452Z,214.40
2022-11-27T19:27:15.643Z,266.08
2022-11-27T19:29:06.828Z,212.20
2022-11-27T19:30:54.780Z,248.77
2022-11-27T19:32:43.185Z,259.98
2022-11-27T19:34:31.809Z,279.17
2022-11-27T19:36:21.315Z,244.68
2022-11-27T19:38:10.308Z,293.27
2022-11-27T19:39:58.761Z,274.00
2022-11-27T19:41:46.579Z,421.58
2022-11-27T19:43:34.644Z,513.10
2022-11-27T19:45:24.881Z,397.92
2022-11-27T19:47:12.978Z,556.92
2022-11-27T19:50:52.074Z,462.33
2022-11-27T19:52:41.482Z,414.70
2022-11-27T19:54:30.487Z,429.05
2022-11-27T19:56:18.482Z,391.92
2022-11-27T19:58:07.460Z,381.83
2022-11-27T19:59:56.356Z,352.83
2022-11-27T20:01:45.086Z,431.73
2022-11-27T20:03:34.107Z,375.20
2022-11-27T20:05:23.410Z,456.90
2022-11-27T20:07:12.243Z,508.92
2022-11-27T20:09:04.577Z,442.50
2022-11-27T20:10:54.384Z,422.25
2022-11-27T20:12:43.617Z,290.73
2022-11-27T20:14:31.649Z,277.52
2022-11-27T20:16:22.215Z,231.15
2022-11-27T20:18:10.518Z,225.00
2022-11-27T20:19:58.211Z,251.13
2022-11-27T20:21:46.650Z,206.55
2022-11-27T20:23:34.662Z,184.65
2022-11-27T20:25:25.888Z,174.32
2022-11-27T20:27:13.542Z,240.82
2022-11-27T20:29:01.489Z,216.60
2022-11-27T20:32:44.060Z,169.90
2022-11-27T20:34:32.849Z,173.00
2022-11-27T20:36:21.529Z,168.07
2022-11-27T20:38:09.771Z,167.73
2022-11-27T20:39:58.649Z,158.50
2022-11-27T20:43:34.597Z,149.38
2022-11-27T20:45:23.530Z,149.00
2022-11-27T20:47:11.819Z,153.10
2022-11-27T20:49:00.119Z,163.70
2022-11-27T20:50:51.458Z,164.13
2022-11-27T20:52:39.303Z,161.40
2022-11-27T20:54:29.333Z,165.93
2022-11-27T20:56:19.212Z,161.13
2022-11-27T20:58:06.583Z,187.70
2022-11-27T20:59:55.492Z,201.02
2022-11-27T21:01:43.164Z,182.73
2022-11-27T21:03:34.685Z,194.52
2022-11-27T21:05:32.990Z,201.88
2022-11-27T21:07:24.360Z,221.65
2022-11-27T21:09:14.105Z,253.70
2022-11-27T21:11:18.310Z,245.95
2022-11-27T21:13:05.658Z,215.35
2022-11-27T21:14:53.041Z,216.25
2022-11-27T21:16:43.733Z,195.57
2022-11-27T21:18:31.950Z,214.73
2022-11-27T21:20:20.796Z,254.23
2022-11-27T21:22:08.997Z,250.98
2022-11-27T21:23:56.792Z,241.27
2022-11-27T21:25:43.834Z,257.42
2022-11-27T21:27:31.312Z,225.52
2022-11-27T21:29:24.726Z,227.88
2022-11-27T21:31:20.238Z,227.90
2022-11-27T21:33:07.942Z,239.15
2022-11-27T21:34:55.099Z,210.50
2022-11-27T21:36:42.304Z,218.65
2022-11-27T21:38:29.744Z,212.40
2022-11-27T21:40:18.098Z,186.73
2022-11-27T21:42:05.353Z,210.05
2022-11-27T21:43:57.834Z,192.98
2022-11-27T21:45:45.025Z,190.68
2022-11-27T21:47:32.393Z,182.85
2022-11-27T21:49:20.764Z,192.32
2022-11-27T21:51:15.370Z,195.50
2022-11-27T21:53:02.547Z,196.18
2022-11-27T21:54:50.870Z,193.30
2022-11-27T21:56:40.855Z,214.57
2022-11-27T21:58:33.957Z,210.90
2022-11-27T22:00:21.587Z,216.88
2022-11-27T22:02:13.910Z,233.38
2022-11-27T22:04:01.045Z,249.27
2022-11-27T22:05:56.658Z,303.58
2022-11-27T22:07:43.861Z,340.33
2022-11-27T22:09:34.128Z,321.17
2022-11-27T22:11:24.740Z,366.40
2022-11-27T22:13:12.260Z,347.00
2022-11-27T22:14:59.450Z,335.40
2022-11-27T22:16:47.347Z,371.00
2022-11-27T22:18:35.679Z,369.77
2022-11-27T22:22:11.382Z,359.95
2022-11-27T22:23:59.693Z,348.95
2022-11-27T22:25:46.901Z,306.38
2022-11-27T22:27:34.409Z,281.05
2022-11-27T22:29:21.542Z,272.38
2022-11-27T22:31:26.500Z,265.42
2022-11-27T22:33:14.191Z,249.25
2022-11-27T22:35:02.188Z,245.32
2022-11-27T22:36:49.515Z,236.95
2022-11-27T22:38:36.946Z,238.18
2022-11-27T22:40:24.252Z,211.83
2022-11-27T22:42:12.346Z,213.05
2022-11-27T22:44:00.522Z,219.32
2022-11-27T22:45:48.371Z,198.15
2022-11-27T22:47:35.797Z,192.40
2022-11-27T22:49:23.311Z,194.00
2022-11-27T22:51:10.959Z,184.30
2022-11-27T22:52:58.408Z,193.45
2022-11-27T22:54:46.074Z,181.85
2022-11-27T22:56:34.205Z,208.47
2022-11-27T22:58:21.963Z,214.13
2022-11-27T23:00:10.479Z,201.63
2022-11-27T23:01:59.289Z,205.45
2022-11-27T23:03:47.026Z,213.07
2022-11-27T23:05:34.638Z,208.15
2022-11-27T23:07:25.114Z,162.98
2022-11-27T23:09:15.152Z,224.57
2022-11-27T23:11:05.770Z,231.07
2022-11-27T23:12:52.914Z,228.80
2022-11-27T23:14:40.061Z,212.60
2022-11-27T23:16:27.543Z,199.70
2022-11-27T23:18:14.642Z,220.07
2022-11-27T23:20:01.761Z,209.70
2022-11-27T23:21:49.125Z,212.15
2022-11-27T23:23:36.466Z,315.00
2022-11-27T23:25:23.596Z,351.00
2022-11-27T23:27:11.105Z,344.40
2022-11-27T23:28:58.539Z,312.90
2022-11-27T23:30:45.878Z,280.65
2022-11-27T23:32:33.822Z,265.75
2022-11-27T23:34:21.015Z,264.80
2022-11-27T23:36:08.571Z,274.23
2022-11-27T23:39:43.137Z,264.15
2022-11-27T23:41:30.669Z,409.15
2022-11-27T23:43:17.954Z,448.75
2022-11-27T23:45:05.500Z,433.10
2022-11-27T23:46:52.502Z,360.83
2022-11-27T23:48:39.852Z,311.52
2022-11-27T23:50:26.887Z,277.50
2022-11-27T23:52:17.104Z,226.43
2022-11-27T23:54:09.207Z,204.50
2022-11-27T23:56:00.458Z,213.73
2022-11-27T23:57:47.493Z,227.27
2022-11-27T23:59:34.849Z,222.05
